createdAt,value
2023-05-10T00:01:47.622Z,13.85
2023-05-10T00:04:14.014Z,13.90
2023-05-10T00:06:40.348Z,13.85
2023-05-10T00:09:07.685Z,13.82
2023-05-10T00:11:34.007Z,13.81
2023-05-10T00:14:00.320Z,13.73
2023-05-10T00:16:26.735Z,13.72
2023-05-10T00:18:53.058Z,13.66
2023-05-10T00:21:19.414Z,13.53
2023-05-10T00:23:45.730Z,13.56
2023-05-10T00:26:12.712Z,13.58
2023-05-10T00:28:39.061Z,13.60
2023-05-10T00:31:05.381Z,13.57
2023-05-10T00:33:31.701Z,13.56
2023-05-10T00:35:58.010Z,13.56
2023-05-10T00:38:24.355Z,13.69
2023-05-10T00:40:50.735Z,13.75
2023-05-10T00:43:17.035Z,13.75
2023-05-10T00:45:44.160Z,13.66
2023-05-10T00:48:10.608Z,13.57
2023-05-10T00:50:37.357Z,13.56
2023-05-10T00:53:04.119Z,13.68
2023-05-10T00:55:31.216Z,13.69
2023-05-10T00:57:57.689Z,13.70
2023-05-10T01:00:24.063Z,13.76
2023-05-10T01:02:50.573Z,13.80
2023-05-10T01:05:17.200Z,13.84
2023-05-10T01:07:43.527Z,13.73
2023-05-10T01:10:10.456Z,13.77
2023-05-10T01:12:40.217Z,13.69
2023-05-10T01:15:08.840Z,13.57
2023-05-10T01:17:38.317Z,13.63
2023-05-10T01:20:05.536Z,13.72
2023-05-10T01:23:02.002Z,13.65
2023-05-10T01:25:37.309Z,13.70
2023-05-10T01:28:22.000Z,13.77
2023-05-10T01:31:09.729Z,13.71
2023-05-10T01:33:52.204Z,13.72
2023-05-10T01:36:27.819Z,13.65
2023-05-10T01:39:17.503Z,13.48
2023-05-10T01:41:51.931Z,13.47
2023-05-10T01:44:40.776Z,13.46
2023-05-10T01:47:11.473Z,13.48
2023-05-10T01:49:45.053Z,13.43
2023-05-10T01:52:14.842Z,13.42
2023-05-10T01:54:52.971Z,13.40
2023-05-10T01:57:21.157Z,13.46
2023-05-10T01:59:50.947Z,13.54
2023-05-10T02:02:19.661Z,13.72
2023-05-10T02:04:47.194Z,13.70
2023-05-10T02:07:15.181Z,13.63
2023-05-10T02:09:45.002Z,13.53
2023-05-10T02:12:14.814Z,13.65
2023-05-10T02:14:43.158Z,13.67
2023-05-10T02:17:10.404Z,13.60
2023-05-10T02:19:39.801Z,13.69
2023-05-10T02:22:07.650Z,13.72
2023-05-10T02:24:35.746Z,13.64
2023-05-10T02:27:04.276Z,13.55
2023-05-10T02:29:32.043Z,13.53
2023-05-10T02:31:59.589Z,13.57
2023-05-10T02:34:29.184Z,13.55
2023-05-10T02:36:57.000Z,13.63
2023-05-10T02:39:25.374Z,13.69
2023-05-10T02:41:53.830Z,13.55
2023-05-10T02:44:21.266Z,13.51
2023-05-10T02:46:47.978Z,13.48
2023-05-10T02:49:14.828Z,13.43
2023-05-10T02:51:47.918Z,13.37
2023-05-10T02:54:21.013Z,13.33
2023-05-10T02:56:54.635Z,13.20
2023-05-10T02:59:20.945Z,13.21
2023-05-10T03:01:47.435Z,13.17
2023-05-10T03:04:13.805Z,13.20
2023-05-10T03:06:40.667Z,13.13
2023-05-10T03:09:07.196Z,13.20
2023-05-10T03:11:47.046Z,13.20
2023-05-10T03:14:40.880Z,13.19
2023-05-10T03:17:13.372Z,13.21
2023-05-10T03:19:52.088Z,13.14
2023-05-10T03:22:25.505Z,13.08
2023-05-10T03:24:56.368Z,13.18
2023-05-10T03:27:25.982Z,13.19
2023-05-10T03:29:54.441Z,13.20
2023-05-10T03:32:20.803Z,13.17
2023-05-10T03:34:47.111Z,13.21
2023-05-10T03:37:13.445Z,13.17
2023-05-10T03:39:39.775Z,13.16
2023-05-10T03:42:06.212Z,13.10
2023-05-10T03:44:32.666Z,13.11
2023-05-10T03:46:59.116Z,13.20
2023-05-10T03:49:25.471Z,13.10
2023-05-10T03:51:51.904Z,13.05
2023-05-10T03:54:18.230Z,13.06
2023-05-10T03:56:44.534Z,13.10
2023-05-10T03:59:10.854Z,13.07
2023-05-10T04:01:37.156Z,13.20
2023-05-10T04:04:03.677Z,13.22
2023-05-10T04:06:30.098Z,13.18
2023-05-10T04:08:56.439Z,13.18
2023-05-10T04:11:22.957Z,13.22
2023-05-10T04:13:49.306Z,13.25
2023-05-10T04:16:15.653Z,13.29
2023-05-10T04:18:42.016Z,13.33
2023-05-10T04:21:15.147Z,13.34
2023-05-10T04:23:41.873Z,13.36
2023-05-10T04:26:08.410Z,13.23
2023-05-10T04:28:34.740Z,13.23
2023-05-10T04:31:05.546Z,13.22
2023-05-10T04:33:32.050Z,13.26
2023-05-10T04:35:58.408Z,13.07
2023-05-10T04:38:24.820Z,12.95
2023-05-10T04:40:51.151Z,12.88
2023-05-10T04:43:17.539Z,12.87
2023-05-10T04:45:43.845Z,12.76
2023-05-10T04:48:10.153Z,12.70
2023-05-10T04:50:36.472Z,12.74
2023-05-10T04:53:02.920Z,12.53
2023-05-10T04:55:29.362Z,12.65
2023-05-10T04:57:55.697Z,12.75
2023-05-10T05:00:22.044Z,12.66
2023-05-10T05:02:48.419Z,12.59
2023-05-10T05:05:14.901Z,12.53
2023-05-10T05:07:41.313Z,12.60
2023-05-10T05:10:09.131Z,12.57
2023-05-10T05:12:36.127Z,12.48
2023-05-10T05:15:03.168Z,12.47
2023-05-10T05:17:31.402Z,12.60
2023-05-10T05:19:57.786Z,12.73
2023-05-10T05:22:24.151Z,12.73
2023-05-10T05:24:50.465Z,12.60
2023-05-10T05:27:16.767Z,12.61
2023-05-10T05:29:43.261Z,12.74
2023-05-10T05:32:09.727Z,12.86
2023-05-10T05:34:36.141Z,12.94
2023-05-10T05:37:02.445Z,12.99
2023-05-10T05:39:28.730Z,12.99
2023-05-10T05:41:55.584Z,13.00
2023-05-10T05:44:21.883Z,13.08
2023-05-10T05:46:48.230Z,13.10
2023-05-10T05:49:14.516Z,13.18
2023-05-10T05:51:40.825Z,13.18
2023-05-10T05:54:07.125Z,13.01
2023-05-10T05:56:33.442Z,13.21
2023-05-10T05:58:59.892Z,13.35
2023-05-10T06:01:26.258Z,13.32
2023-05-10T06:03:53.493Z,13.33
2023-05-10T06:06:20.002Z,13.45
2023-05-10T06:08:46.319Z,13.42
2023-05-10T06:11:12.628Z,13.63
2023-05-10T06:13:38.937Z,13.66
2023-05-10T06:16:05.560Z,13.66
2023-05-10T06:18:32.006Z,13.54
2023-05-10T06:20:58.306Z,13.60
2023-05-10T06:23:24.624Z,13.33
2023-05-10T06:25:50.988Z,13.39
2023-05-10T06:28:17.328Z,13.57
2023-05-10T06:30:43.719Z,13.64
2023-05-10T06:33:10.145Z,13.62
2023-05-10T06:35:36.533Z,13.78
2023-05-10T06:38:02.936Z,13.89
2023-05-10T06:40:29.244Z,14.04
2023-05-10T06:42:55.534Z,14.14
2023-05-10T06:45:21.844Z,14.32
2023-05-10T06:47:48.183Z,14.37
2023-05-10T06:50:14.561Z,14.47
2023-05-10T06:52:40.957Z,14.35
2023-05-10T06:55:07.799Z,14.42
2023-05-10T06:57:34.129Z,14.43
2023-05-10T07:00:00.688Z,14.15
2023-05-10T07:02:27.141Z,14.12
2023-05-10T07:04:53.658Z,14.03
2023-05-10T07:07:20.104Z,14.04
2023-05-10T07:09:46.432Z,14.12
2023-05-10T07:12:14.706Z,14.26
2023-05-10T07:14:41.876Z,14.29
2023-05-10T07:17:08.224Z,14.35
2023-05-10T07:19:34.640Z,14.63
2023-05-10T07:22:00.933Z,14.76
2023-05-10T07:24:27.242Z,15.02
2023-05-10T07:26:53.627Z,15.25
2023-05-10T07:29:19.937Z,15.29
2023-05-10T07:31:46.247Z,15.36
2023-05-10T07:34:12.562Z,15.50
2023-05-10T07:36:38.866Z,15.52
2023-05-10T07:39:05.197Z,15.44
2023-05-10T07:41:31.572Z,15.63
2023-05-10T07:43:57.896Z,15.93
2023-05-10T07:46:24.310Z,15.87
2023-05-10T07:48:50.753Z,15.75
2023-05-10T07:51:17.066Z,15.67
2023-05-10T07:53:43.442Z,15.44
2023-05-10T07:56:29.863Z,15.42
2023-05-10T07:59:04.259Z,15.72
2023-05-10T08:01:32.755Z,16.19
2023-05-10T08:03:59.129Z,16.00
2023-05-10T08:06:25.569Z,15.96
2023-05-10T08:08:51.868Z,15.69
2023-05-10T08:11:18.710Z,15.59
2023-05-10T08:13:46.074Z,15.57
2023-05-10T08:16:12.524Z,15.82
2023-05-10T08:18:39.793Z,15.82
2023-05-10T08:21:06.642Z,15.82
2023-05-10T08:23:33.336Z,15.97
2023-05-10T08:26:00.242Z,15.84
2023-05-10T08:28:26.576Z,15.62
2023-05-10T08:30:52.888Z,15.52
2023-05-10T08:33:19.638Z,15.74
2023-05-10T08:35:46.138Z,15.88
2023-05-10T08:38:12.474Z,15.77
2023-05-10T08:40:39.020Z,15.76
2023-05-10T08:43:07.500Z,15.90
2023-05-10T08:45:39.178Z,16.14
2023-05-10T08:48:10.524Z,16.64
2023-05-10T08:50:37.906Z,16.83
2023-05-10T08:53:12.974Z,17.07
2023-05-10T08:55:40.254Z,16.99
2023-05-10T08:58:07.530Z,17.58
2023-05-10T09:00:34.743Z,17.87
2023-05-10T09:03:02.294Z,17.56
2023-05-10T09:05:28.701Z,16.96
2023-05-10T09:07:55.081Z,16.67
2023-05-10T09:10:21.788Z,16.31
2023-05-10T09:12:49.801Z,16.19
2023-05-10T09:15:17.092Z,16.17
2023-05-10T09:17:45.306Z,16.01
2023-05-10T09:20:11.727Z,15.89
2023-05-10T09:22:38.061Z,15.94
2023-05-10T09:25:15.237Z,15.94
2023-05-10T09:27:45.297Z,16.11
2023-05-10T09:30:16.968Z,16.21
2023-05-10T09:32:48.389Z,16.08
2023-05-10T09:35:19.873Z,15.87
2023-05-10T09:37:48.564Z,15.90
2023-05-10T09:40:21.182Z,15.88
2023-05-10T09:43:01.917Z,16.20
2023-05-10T09:45:30.190Z,16.21
2023-05-10T09:47:57.301Z,16.41
2023-05-10T09:50:24.190Z,16.62
2023-05-10T09:52:53.262Z,16.52
2023-05-10T09:55:22.591Z,16.78
2023-05-10T09:57:49.942Z,16.89
2023-05-10T10:00:20.763Z,17.14
2023-05-10T10:03:05.630Z,17.43
2023-05-10T10:05:36.418Z,18.05
2023-05-10T10:08:06.622Z,18.22
2023-05-10T10:10:34.481Z,18.37
2023-05-10T10:13:01.120Z,18.50
2023-05-10T10:15:27.448Z,18.96
2023-05-10T10:17:54.411Z,18.78
2023-05-10T10:20:22.669Z,18.73
2023-05-10T10:22:49.500Z,18.68
2023-05-10T10:25:18.132Z,19.02
2023-05-10T10:27:53.764Z,19.15
2023-05-10T10:30:23.023Z,19.05
2023-05-10T10:33:28.873Z,19.36
2023-05-10T10:35:58.516Z,19.57
2023-05-10T10:38:24.824Z,19.42
2023-05-10T10:41:12.256Z,19.32
2023-05-10T10:43:38.660Z,19.40
2023-05-10T10:46:18.462Z,19.20
2023-05-10T10:48:49.476Z,19.66
2023-05-10T10:51:15.922Z,19.80
2023-05-10T10:53:43.755Z,19.72
2023-05-10T10:56:12.468Z,20.01
2023-05-10T10:58:39.446Z,19.97
2023-05-10T11:01:16.724Z,20.06
2023-05-10T11:04:16.028Z,19.58
2023-05-10T11:06:42.691Z,19.56
2023-05-10T11:09:11.387Z,19.75
2023-05-10T11:11:50.128Z,20.25
2023-05-10T11:14:21.149Z,21.02
2023-05-10T11:16:47.561Z,21.08
2023-05-10T11:19:17.086Z,21.23
2023-05-10T11:21:51.522Z,20.63
2023-05-10T11:24:20.775Z,19.43
2023-05-10T11:26:50.181Z,18.90
2023-05-10T11:29:16.885Z,19.29
2023-05-10T11:31:45.076Z,19.49
2023-05-10T11:34:11.826Z,19.68
2023-05-10T11:36:38.196Z,19.23
2023-05-10T11:39:05.208Z,19.01
2023-05-10T11:41:32.679Z,19.28
2023-05-10T11:43:59.505Z,19.77
2023-05-10T11:46:27.736Z,19.96
2023-05-10T11:48:58.113Z,20.08
2023-05-10T11:51:25.870Z,20.43
2023-05-10T11:53:55.451Z,20.18
2023-05-10T11:56:21.937Z,20.07
2023-05-10T11:58:55.011Z,20.32
2023-05-10T12:01:22.458Z,20.30
2023-05-10T12:03:49.482Z,20.69
2023-05-10T12:06:16.038Z,21.17
2023-05-10T12:08:46.131Z,21.34
2023-05-10T12:11:13.398Z,21.50
2023-05-10T12:13:41.189Z,21.06
2023-05-10T12:16:17.375Z,20.33
2023-05-10T12:18:44.248Z,20.15
2023-05-10T12:21:12.045Z,20.00
2023-05-10T12:23:39.871Z,20.16
2023-05-10T12:26:06.855Z,20.35
2023-05-10T12:28:34.211Z,20.26
2023-05-10T12:31:02.706Z,20.41
2023-05-10T12:33:36.714Z,20.95
2023-05-10T12:36:03.527Z,20.81
2023-05-10T12:38:40.628Z,20.59
2023-05-10T12:41:08.864Z,20.51
2023-05-10T12:43:36.438Z,20.79
2023-05-10T12:46:13.767Z,21.01
2023-05-10T12:48:41.996Z,20.90
2023-05-10T12:51:09.450Z,20.74
2023-05-10T12:53:36.612Z,20.75
2023-05-10T12:56:03.132Z,20.87
2023-05-10T12:58:35.601Z,20.83
2023-05-10T13:01:03.180Z,20.69
2023-05-10T13:03:29.691Z,20.43
2023-05-10T13:05:56.028Z,20.44
2023-05-10T13:08:22.441Z,20.70
2023-05-10T13:10:49.172Z,20.73
2023-05-10T13:13:16.403Z,20.56
2023-05-10T13:15:42.832Z,20.55
2023-05-10T13:18:09.290Z,20.19
2023-05-10T13:20:35.648Z,20.35
2023-05-10T13:23:01.953Z,20.67
2023-05-10T13:25:28.268Z,21.06
2023-05-10T13:27:54.627Z,21.25
2023-05-10T13:30:20.921Z,20.82
2023-05-10T13:32:47.299Z,20.80
2023-05-10T13:35:13.663Z,20.55
2023-05-10T13:37:39.986Z,20.22
2023-05-10T13:40:06.981Z,20.08
2023-05-10T13:42:33.355Z,19.46
2023-05-10T13:45:00.386Z,19.00
2023-05-10T13:47:26.698Z,18.80
2023-05-10T13:49:53.007Z,18.47
2023-05-10T13:52:19.292Z,18.33
2023-05-10T13:54:45.618Z,17.88
2023-05-10T13:57:11.926Z,17.63
2023-05-10T13:59:38.250Z,17.32
2023-05-10T14:02:04.615Z,16.94
2023-05-10T14:04:31.109Z,16.65
2023-05-10T14:06:57.489Z,16.31
2023-05-10T14:09:24.082Z,15.98
2023-05-10T14:11:50.393Z,15.57
2023-05-10T14:14:16.728Z,15.60
2023-05-10T14:16:44.963Z,15.51
2023-05-10T14:19:11.954Z,15.68
2023-05-10T14:21:38.664Z,15.87
2023-05-10T14:24:05.547Z,16.02
2023-05-10T14:26:31.849Z,16.15
2023-05-10T14:28:58.328Z,16.41
2023-05-10T14:31:24.766Z,16.59
2023-05-10T14:33:51.080Z,16.78
2023-05-10T14:36:18.610Z,16.86
2023-05-10T14:38:44.966Z,16.78
2023-05-10T14:41:12.008Z,16.77
2023-05-10T14:43:38.419Z,16.79
2023-05-10T14:46:04.821Z,16.53
2023-05-10T14:48:31.144Z,16.47
2023-05-10T14:50:57.483Z,16.24
2023-05-10T14:53:23.836Z,16.38
2023-05-10T14:55:50.210Z,16.36
2023-05-10T14:58:16.522Z,16.52
2023-05-10T15:00:42.869Z,16.88
2023-05-10T15:03:10.105Z,16.78
2023-05-10T15:05:37.018Z,16.93
2023-05-10T15:08:04.199Z,16.93
2023-05-10T15:10:32.021Z,16.92
2023-05-10T15:13:00.134Z,16.98
2023-05-10T15:15:26.699Z,16.71
2023-05-10T15:17:53.079Z,16.65
2023-05-10T15:20:19.454Z,16.70
2023-05-10T15:22:45.793Z,16.78
2023-05-10T15:25:12.094Z,16.94
2023-05-10T15:27:38.461Z,16.81
2023-05-10T15:30:05.372Z,17.15
2023-05-10T15:32:31.764Z,17.17
2023-05-10T15:34:58.092Z,17.25
2023-05-10T15:37:24.408Z,17.26
2023-05-10T15:39:50.794Z,17.28
2023-05-10T15:42:17.106Z,17.26
2023-05-10T15:44:43.401Z,17.03
2023-05-10T15:47:09.713Z,17.04
2023-05-10T15:49:36.026Z,16.95
2023-05-10T15:52:02.597Z,16.79
2023-05-10T15:54:28.994Z,16.80
2023-05-10T15:56:55.404Z,16.71
2023-05-10T15:59:21.763Z,16.73
2023-05-10T16:01:48.079Z,16.77
2023-05-10T16:04:14.400Z,16.57
2023-05-10T16:06:40.692Z,16.36
2023-05-10T16:09:07.018Z,16.08
2023-05-10T16:11:33.376Z,15.75
2023-05-10T16:13:59.693Z,15.74
2023-05-10T16:16:26.068Z,15.74
2023-05-10T16:18:52.592Z,15.85
2023-05-10T16:21:19.132Z,15.55
2023-05-10T16:23:45.581Z,15.37
2023-05-10T16:26:12.338Z,15.43
2023-05-10T16:28:38.650Z,15.49
2023-05-10T16:31:04.995Z,15.31
2023-05-10T16:33:31.328Z,15.36
2023-05-10T16:35:57.653Z,15.44
2023-05-10T16:38:23.962Z,15.44
2023-05-10T16:40:50.250Z,15.50
2023-05-10T16:43:16.580Z,15.41
2023-05-10T16:45:42.913Z,15.25
2023-05-10T16:48:09.235Z,15.17
2023-05-10T16:50:35.645Z,15.05
2023-05-10T16:53:01.962Z,15.11
2023-05-10T16:55:28.274Z,15.04
2023-05-10T16:57:54.566Z,14.83
2023-05-10T17:00:20.963Z,14.84
2023-05-10T17:02:47.374Z,14.76
2023-05-10T17:05:13.762Z,14.59
2023-05-10T17:07:40.211Z,14.53
2023-05-10T17:10:07.148Z,14.39
2023-05-10T17:12:33.440Z,14.34
2023-05-10T17:14:59.823Z,14.30
2023-05-10T17:17:26.159Z,14.33
2023-05-10T17:19:52.519Z,14.22
2023-05-10T17:22:18.943Z,14.35
2023-05-10T17:24:45.535Z,14.55
2023-05-10T17:27:11.822Z,14.44
2023-05-10T17:29:38.107Z,14.39
2023-05-10T17:32:04.673Z,14.20
2023-05-10T17:34:31.056Z,14.20
2023-05-10T17:36:57.357Z,14.16
2023-05-10T17:39:23.640Z,13.96
2023-05-10T17:41:49.955Z,14.10
2023-05-10T17:44:16.271Z,13.95
2023-05-10T17:46:42.553Z,14.04
2023-05-10T17:49:08.836Z,13.88
2023-05-10T17:51:35.140Z,13.95
2023-05-10T17:54:01.418Z,13.85
2023-05-10T17:56:27.714Z,13.74
2023-05-10T17:58:54.159Z,13.81
2023-05-10T18:01:20.532Z,13.77
2023-05-10T18:03:49.311Z,13.66
2023-05-10T18:06:15.594Z,13.82
2023-05-10T18:08:41.895Z,13.81
2023-05-10T18:11:08.184Z,13.67
2023-05-10T18:13:34.569Z,13.71
2023-05-10T18:16:00.835Z,13.89
2023-05-10T18:18:27.235Z,13.87
2023-05-10T18:20:53.569Z,13.81
2023-05-10T18:23:19.911Z,13.75
2023-05-10T18:25:46.270Z,13.77
2023-05-10T18:28:12.572Z,13.70
2023-05-10T18:30:38.878Z,13.57
2023-05-10T18:33:05.192Z,13.57
2023-05-10T18:35:31.490Z,13.41
2023-05-10T18:37:58.007Z,13.41
2023-05-10T18:40:26.739Z,13.17
2023-05-10T18:42:53.037Z,13.09
2023-05-10T18:45:19.590Z,13.08
2023-05-10T18:47:46.139Z,13.23
2023-05-10T18:50:12.492Z,13.11
2023-05-10T18:52:38.815Z,13.02
2023-05-10T18:55:06.067Z,13.00
2023-05-10T18:57:32.385Z,13.03
2023-05-10T18:59:58.725Z,13.15
2023-05-10T19:02:25.091Z,13.17
2023-05-10T19:04:51.495Z,13.22
2023-05-10T19:07:17.823Z,13.16
2023-05-10T19:09:44.136Z,13.07
2023-05-10T19:12:10.437Z,13.00
2023-05-10T19:14:36.741Z,13.11
2023-05-10T19:17:03.265Z,13.20
2023-05-10T19:19:30.042Z,13.27
2023-05-10T19:21:56.557Z,13.31
2023-05-10T19:24:23.974Z,13.33
2023-05-10T19:26:50.365Z,13.34
2023-05-10T19:29:16.699Z,13.34
2023-05-10T19:31:43.934Z,13.33
2023-05-10T19:34:10.309Z,13.18
2023-05-10T19:36:36.720Z,12.94
2023-05-10T19:39:03.144Z,12.96
2023-05-10T19:41:29.453Z,13.01
2023-05-10T19:43:55.768Z,13.02
2023-05-10T19:46:22.100Z,12.88
2023-05-10T19:48:50.973Z,12.90
2023-05-10T19:51:17.363Z,12.89
2023-05-10T19:53:43.712Z,12.99
2023-05-10T19:56:10.405Z,13.12
2023-05-10T19:58:36.774Z,13.20
2023-05-10T20:01:03.160Z,13.15
2023-05-10T20:03:30.028Z,13.27
2023-05-10T20:05:56.445Z,13.35
2023-05-10T20:08:22.769Z,13.31
2023-05-10T20:10:49.101Z,13.29
2023-05-10T20:13:15.394Z,13.29
2023-05-10T20:15:41.716Z,13.18
2023-05-10T20:18:08.101Z,12.96
2023-05-10T20:20:34.420Z,12.76
2023-05-10T20:23:00.737Z,12.62
2023-05-10T20:25:27.083Z,12.81
2023-05-10T20:27:53.484Z,12.91
2023-05-10T20:30:20.055Z,13.03
2023-05-10T20:32:46.662Z,13.18
2023-05-10T20:35:13.028Z,13.17
2023-05-10T20:37:39.374Z,13.05
2023-05-10T20:40:06.402Z,12.89
2023-05-10T20:42:32.796Z,13.06
2023-05-10T20:44:59.097Z,13.16
2023-05-10T20:47:25.500Z,13.15
2023-05-10T20:49:51.920Z,13.11
2023-05-10T20:52:18.237Z,13.18
2023-05-10T20:54:44.528Z,13.12
2023-05-10T20:57:10.837Z,13.24
2023-05-10T20:59:37.132Z,13.18
2023-05-10T21:02:03.544Z,13.21
2023-05-10T21:04:29.907Z,13.12
2023-05-10T21:06:56.269Z,13.14
2023-05-10T21:09:22.838Z,13.26
2023-05-10T21:11:50.382Z,13.11
2023-05-10T21:14:16.725Z,13.03
2023-05-10T21:16:43.351Z,12.92
2023-05-10T21:19:09.937Z,12.77
2023-05-10T21:21:36.262Z,12.87
2023-05-10T21:24:02.616Z,12.88
2023-05-10T21:26:28.908Z,12.95
2023-05-10T21:28:55.227Z,12.94
2023-05-10T21:31:21.536Z,12.92
2023-05-10T21:33:47.884Z,12.97
2023-05-10T21:36:14.374Z,12.97
2023-05-10T21:38:40.830Z,12.96
2023-05-10T21:41:07.647Z,12.90
2023-05-10T21:43:34.136Z,12.93
2023-05-10T21:46:00.492Z,12.88
2023-05-10T21:48:26.831Z,12.81
2023-05-10T21:50:53.156Z,12.81
2023-05-10T21:53:19.590Z,12.76
2023-05-10T21:55:45.901Z,12.71
2023-05-10T21:58:12.218Z,12.61
2023-05-10T22:00:38.525Z,12.57
2023-05-10T22:03:05.018Z,12.61
2023-05-10T22:05:31.449Z,12.57
2023-05-10T22:07:57.820Z,12.60
2023-05-10T22:10:24.134Z,12.40
2023-05-10T22:12:50.552Z,12.38
2023-05-10T22:15:17.042Z,12.34
2023-05-10T22:17:43.463Z,12.40
2023-05-10T22:20:09.997Z,12.40
2023-05-10T22:22:36.345Z,12.35
2023-05-10T22:25:02.662Z,12.33
2023-05-10T22:27:28.984Z,12.31
2023-05-10T22:29:56.451Z,12.34
2023-05-10T22:32:22.889Z,12.33
2023-05-10T22:34:49.196Z,12.37
2023-05-10T22:37:15.499Z,12.42
2023-05-10T22:39:41.778Z,12.44
2023-05-10T22:42:08.115Z,12.36
2023-05-10T22:44:34.505Z,12.44
2023-05-10T22:47:00.811Z,12.55
2023-05-10T22:49:27.128Z,12.46
2023-05-10T22:51:53.436Z,12.39
2023-05-10T22:54:19.748Z,12.33
2023-05-10T22:56:46.147Z,12.29
2023-05-10T22:59:12.508Z,12.34
2023-05-10T23:01:38.906Z,12.31
2023-05-10T23:04:05.235Z,12.46
2023-05-10T23:06:31.539Z,12.50
2023-05-10T23:08:57.843Z,12.62
2023-05-10T23:11:24.644Z,12.57
2023-05-10T23:13:50.972Z,12.62
2023-05-10T23:16:18.043Z,12.61
2023-05-10T23:18:44.418Z,12.46
2023-05-10T23:21:10.774Z,12.57
2023-05-10T23:23:37.149Z,12.53
2023-05-10T23:26:03.502Z,12.48
2023-05-10T23:28:29.853Z,12.50
2023-05-10T23:30:57.410Z,12.55
2023-05-10T23:33:24.471Z,12.58
2023-05-10T23:35:50.767Z,12.53
2023-05-10T23:38:17.093Z,12.63
2023-05-10T23:40:43.388Z,12.57
2023-05-10T23:43:09.720Z,12.50
2023-05-10T23:45:36.105Z,12.52
2023-05-10T23:48:02.521Z,12.51
2023-05-10T23:50:28.858Z,12.50
2023-05-10T23:52:55.166Z,12.47
2023-05-10T23:55:21.545Z,12.46
2023-05-10T23:57:47.873Z,12.47
